Time;durP1;ratioP1;P1;durP2;ratioP2;P2;SDS_P1;SDS_P2;PMS_P1;PMS_P2;Temp;Humidity;BMP_temperature;BMP_pressure;BME280_temperature;BME280_humidity;BME280_pressure;Samples;Min_cycle;Max_cycle;Signal;HPM_P1;HPM_P2
2024/01/14 00:02:27;;;;;;;8.10;5.87;;;3.30;99.90;;;;;;5048362;28;20317;-75
2024/01/14 00:04:53;;;;;;;6.10;5.43;;;3.30;99.90;;;;;;5049594;28;20266;-74
2024/01/14 00:07:21;;;;;;;6.40;5.37;;;3.40;99.90;;;;;;5049550;28;20266;-74
2024/01/14 00:09:48;;;;;;;8.43;6.00;;;3.30;99.90;;;;;;5049797;28;20212;-75
2024/01/14 00:12:15;;;;;;;10.40;5.53;;;3.40;99.90;;;;;;5049949;28;20303;-74
2024/01/14 00:14:42;;;;;;;10.23;6.03;;;3.30;99.90;;;;;;5050071;28;20297;-75
2024/01/14 00:17:10;;;;;;;7.10;5.67;;;3.40;99.90;;;;;;5049535;28;20255;-75
2024/01/14 00:19:38;;;;;;;8.43;5.80;;;3.40;99.90;;;;;;5049588;28;20670;-75
2024/01/14 00:22:05;;;;;;;6.57;5.70;;;3.50;99.90;;;;;;5049801;28;20283;-75
2024/01/14 00:24:32;;;;;;;7.73;6.53;;;3.50;99.90;;;;;;5049741;28;20210;-75
2024/01/14 00:26:59;;;;;;;8.73;6.43;;;3.50;99.90;;;;;;5049461;28;20212;-75
2024/01/14 00:29:26;;;;;;;10.03;5.77;;;3.40;99.90;;;;;;5049213;28;20714;-75
2024/01/14 00:31:53;;;;;;;12.13;7.00;;;3.50;99.90;;;;;;5047792;28;20291;-75
2024/01/14 00:34:20;;;;;;;9.50;5.80;;;3.40;99.90;;;;;;5048702;28;20208;-75
2024/01/14 00:36:48;;;;;;;9.07;6.43;;;3.50;99.90;;;;;;5047808;28;20315;-75
2024/01/14 00:39:16;;;;;;;9.33;6.00;;;3.50;99.90;;;;;;5048673;28;20762;-75
2024/01/14 00:41:43;;;;;;;7.20;5.10;;;3.40;99.90;;;;;;5049035;28;20200;-75
2024/01/14 00:44:10;;;;;;;7.53;5.60;;;3.50;99.90;;;;;;5048867;28;20300;-75
2024/01/14 00:46:37;;;;;;;7.27;5.70;;;3.50;99.90;;;;;;5049164;28;20569;-75
2024/01/14 00:49:03;;;;;;;6.47;4.77;;;3.50;99.90;;;;;;5048854;28;20295;-75
2024/01/14 00:51:30;;;;;;;5.90;4.80;;;3.40;99.90;;;;;;5047763;28;20208;-75
2024/01/14 00:53:59;;;;;;;6.50;4.53;;;3.50;99.90;;;;;;5047607;28;20302;-75
2024/01/14 00:56:25;;;;;;;8.37;4.53;;;3.50;99.90;;;;;;5047545;28;20659;-75
2024/01/14 00:58:52;;;;;;;8.33;4.50;;;3.40;99.90;;;;;;5047863;28;20239;-75
2024/01/14 01:01:19;;;;;;;5.27;3.73;;;3.30;99.90;;;;;;5047644;28;20224;-76
2024/01/14 01:03:46;;;;;;;4.47;3.87;;;3.30;99.90;;;;;;5047581;28;20322;-75
2024/01/14 01:06:13;;;;;;;4.97;3.20;;;3.30;99.90;;;;;;5048591;28;20235;-73
2024/01/14 01:08:40;;;;;;;4.37;3.30;;;3.20;99.90;;;;;;5048307;28;20216;-73
2024/01/14 01:11:08;;;;;;;6.53;3.40;;;3.20;99.90;;;;;;5048537;28;20319;-73
2024/01/14 01:13:35;;;;;;;4.63;3.50;;;3.20;99.90;;;;;;5048331;28;20298;-73
2024/01/14 01:16:02;;;;;;;3.67;3.03;;;3.10;99.90;;;;;;5047975;28;20227;-73
2024/01/14 01:18:29;;;;;;;4.20;3.80;;;3.10;99.90;;;;;;5048353;28;20290;-75
2024/01/14 01:20:56;;;;;;;3.70;3.40;;;3.10;99.90;;;;;;5048445;28;20206;-74
2024/01/14 01:23:23;;;;;;;4.00;3.53;;;3.10;99.90;;;;;;5048289;28;20239;-75
2024/01/14 01:25:50;;;;;;;6.10;3.40;;;3.10;99.90;;;;;;5048127;28;20298;-75
2024/01/14 01:28:18;;;;;;;4.13;3.50;;;3.10;99.90;;;;;;5048575;28;20283;-75
2024/01/14 01:30:45;;;;;;;4.27;3.67;;;3.00;99.90;;;;;;5048371;28;20220;-76
2024/01/14 01:33:12;;;;;;;4.30;3.63;;;3.00;99.90;;;;;;5048057;28;20693;-74
2024/01/14 01:35:40;;;;;;;4.10;3.70;;;3.00;99.90;;;;;;5047868;28;20757;-74
2024/01/14 01:38:06;;;;;;;5.00;3.87;;;2.90;99.90;;;;;;5047949;28;20236;-74
2024/01/14 01:40:33;;;;;;;4.30;3.90;;;3.00;99.90;;;;;;5047759;28;20292;-74
2024/01/14 01:43:00;;;;;;;6.10;4.00;;;3.00;99.90;;;;;;5047048;28;20657;-75
2024/01/14 01:45:28;;;;;;;4.93;3.97;;;2.90;99.90;;;;;;5047562;28;20688;-75
2024/01/14 01:47:56;;;;;;;4.00;3.60;;;2.90;99.90;;;;;;5047791;28;20323;-74
2024/01/14 01:50:23;;;;;;;4.93;3.80;;;2.90;99.90;;;;;;5047453;28;20248;-74
2024/01/14 01:52:51;;;;;;;4.90;3.60;;;2.90;99.90;;;;;;5046907;28;20208;-75
2024/01/14 01:55:18;;;;;;;7.40;3.57;;;2.90;99.90;;;;;;5047535;28;20240;-75
2024/01/14 01:57:46;;;;;;;4.33;3.40;;;3.00;99.90;;;;;;5047509;28;20326;-74
2024/01/14 02:00:14;;;;;;;5.03;3.80;;;2.90;99.90;;;;;;5047332;28;20208;-74
2024/01/14 02:02:43;;;;;;;5.07;4.17;;;2.90;99.90;;;;;;5047152;28;20232;-74
2024/01/14 02:05:10;;;;;;;5.30;3.40;;;2.90;99.90;;;;;;5047111;28;20243;-74
2024/01/14 02:07:38;;;;;;;3.77;3.33;;;2.90;99.90;;;;;;5047231;28;20265;-75
2024/01/14 02:10:06;;;;;;;5.93;3.50;;;2.90;99.90;;;;;;5047234;28;20644;-74
2024/01/14 02:12:33;;;;;;;4.93;3.03;;;2.90;99.90;;;;;;5047066;28;20226;-74
2024/01/14 02:15:00;;;;;;;3.40;2.97;;;2.90;99.90;;;;;;5046850;28;20289;-74
2024/01/14 02:17:27;;;;;;;3.60;2.60;;;2.90;99.90;;;;;;5046873;28;20346;-74
2024/01/14 02:19:55;;;;;;;4.53;3.13;;;2.90;99.90;;;;;;5047104;28;20298;-74
2024/01/14 02:22:27;;;;;;;4.77;2.63;;;2.90;99.90;;;;;;5046868;28;20310;-74
2024/01/14 02:24:56;;;;;;;4.17;3.43;;;2.90;99.90;;;;;;5046736;28;20841;-74
2024/01/14 02:27:24;;;;;;;5.20;2.80;;;2.90;99.90;;;;;;5046980;28;20303;-74
2024/01/14 02:29:52;;;;;;;4.57;3.00;;;2.80;99.90;;;;;;5046720;28;20330;-73
2024/01/14 02:32:19;;;;;;;3.23;2.83;;;2.90;99.90;;;;;;5047161;28;20212;-74
2024/01/14 02:34:47;;;;;;;6.53;3.20;;;2.90;99.90;;;;;;5046942;28;20218;-76
2024/01/14 02:37:14;;;;;;;3.70;2.60;;;2.90;99.90;;;;;;5047083;28;20254;-76
2024/01/14 02:39:41;;;;;;;2.90;2.20;;;2.90;99.90;;;;;;5047413;28;20252;-76
2024/01/14 02:42:09;;;;;;;2.63;2.40;;;3.00;99.90;;;;;;5046807;28;20633;-75
2024/01/14 02:44:36;;;;;;;3.23;2.60;;;2.90;99.90;;;;;;5047121;28;20257;-75
2024/01/14 02:47:03;;;;;;;4.17;2.30;;;2.90;99.90;;;;;;5046784;28;20297;-76
2024/01/14 02:49:30;;;;;;;3.77;2.30;;;2.90;99.90;;;;;;5046874;28;20237;-76
2024/01/14 02:51:57;;;;;;;4.23;2.60;;;2.90;99.90;;;;;;5044581;28;20670;-76
2024/01/14 02:54:24;;;;;;;4.53;2.43;;;2.90;99.90;;;;;;5046302;28;20303;-75
2024/01/14 02:56:51;;;;;;;3.27;1.93;;;2.90;99.90;;;;;;5046182;28;20231;-75
2024/01/14 02:59:19;;;;;;;5.50;1.90;;;2.90;99.90;;;;;;5046911;28;20289;-75
2024/01/14 03:01:47;;;;;;;4.10;2.27;;;2.80;99.90;;;;;;5046862;28;20311;-75
2024/01/14 03:04:14;;;;;;;3.27;2.07;;;2.90;99.90;;;;;;5046428;28;20228;-75
2024/01/14 03:06:40;;;;;;;5.97;2.20;;;2.80;99.90;;;;;;5046207;28;20991;-75
2024/01/14 03:09:07;;;;;;;4.27;2.10;;;2.80;99.90;;;;;;5046559;28;20291;-75
2024/01/14 03:11:34;;;;;;;3.30;1.70;;;2.80;99.90;;;;;;5046332;28;20264;-75
2024/01/14 03:14:01;;;;;;;5.87;2.17;;;2.80;99.90;;;;;;5046147;28;20299;-74
2024/01/14 03:16:30;;;;;;;6.30;2.00;;;2.80;99.90;;;;;;5046397;28;20475;-74
2024/01/14 03:18:56;;;;;;;2.83;2.17;;;2.80;99.90;;;;;;5046323;28;20582;-74
2024/01/14 03:21:23;;;;;;;4.50;1.70;;;2.80;99.90;;;;;;5045997;28;20757;-74
2024/01/14 03:23:50;;;;;;;4.73;2.10;;;2.70;99.90;;;;;;5046080;28;20303;-73
2024/01/14 03:26:17;;;;;;;2.47;1.57;;;2.70;99.90;;;;;;5045847;28;20307;-74
2024/01/14 03:28:44;;;;;;;8.53;1.80;;;2.70;99.90;;;;;;5046032;28;20196;-74
2024/01/14 03:31:15;;;;;;;2.50;1.50;;;2.70;99.90;;;;;;5045915;28;20295;-74
2024/01/14 03:33:43;;;;;;;3.07;1.30;;;2.80;99.90;;;;;;5046441;28;20208;-74
2024/01/14 03:36:13;;;;;;;5.20;1.40;;;2.80;99.90;;;;;;5045971;28;20295;-74
2024/01/14 03:38:40;;;;;;;6.00;1.60;;;2.80;99.90;;;;;;5046199;28;20238;-73
2024/01/14 03:41:07;;;;;;;3.70;1.60;;;2.70;99.90;;;;;;5045740;28;20299;-73
2024/01/14 03:43:34;;;;;;;5.63;1.70;;;2.70;99.90;;;;;;5046210;28;20204;-73
2024/01/14 03:46:02;;;;;;;2.43;1.27;;;2.70;99.90;;;;;;5045962;28;20323;-74
2024/01/14 03:48:28;;;;;;;4.03;1.57;;;2.70;99.90;;;;;;5045563;28;20692;-73
2024/01/14 03:50:57;;;;;;;5.10;1.50;;;2.70;99.90;;;;;;5046263;28;20299;-73
2024/01/14 03:53:23;;;;;;;3.60;1.40;;;2.60;99.90;;;;;;5046083;28;20209;-73
2024/01/14 03:55:50;;;;;;;4.17;1.30;;;2.60;99.90;;;;;;5046079;28;20211;-73
2024/01/14 03:58:17;;;;;;;3.30;1.43;;;2.60;99.90;;;;;;5046272;28;20232;-74
2024/01/14 04:00:44;;;;;;;2.83;1.20;;;2.60;99.90;;;;;;5046131;28;20244;-74
2024/01/14 04:03:11;;;;;;;4.87;1.33;;;2.60;99.90;;;;;;5045690;28;20299;-74
2024/01/14 04:05:38;;;;;;;3.17;1.20;;;2.60;99.90;;;;;;5046089;28;20288;-74
2024/01/14 04:08:06;;;;;;;3.50;1.40;;;2.60;99.90;;;;;;5048985;28;20295;-74
2024/01/14 04:10:33;;;;;;;5.87;1.90;;;2.60;99.90;;;;;;5049563;28;20235;-74
2024/01/14 04:13:00;;;;;;;3.97;1.30;;;2.70;99.90;;;;;;5049232;28;20305;-74
2024/01/14 04:15:27;;;;;;;7.57;1.67;;;2.70;99.90;;;;;;5049594;28;20307;-74
2024/01/14 04:17:54;;;;;;;7.83;1.70;;;2.70;99.90;;;;;;5049083;28;20771;-74
2024/01/14 04:20:21;;;;;;;7.17;1.60;;;2.70;99.90;;;;;;5049318;28;20235;-74
2024/01/14 04:22:48;;;;;;;5.00;1.40;;;2.80;99.90;;;;;;5049058;28;20250;-74
2024/01/14 04:25:16;;;;;;;7.30;1.70;;;2.80;99.90;;;;;;5049442;28;20345;-74
2024/01/14 04:27:43;;;;;;;6.93;1.70;;;2.80;99.90;;;;;;5049098;28;20216;-74
2024/01/14 04:30:11;;;;;;;6.47;1.80;;;2.80;99.90;;;;;;5048947;28;20262;-74
2024/01/14 04:32:38;;;;;;;3.03;1.57;;;2.80;99.90;;;;;;5049065;28;20219;-74
2024/01/14 04:35:05;;;;;;;4.30;1.47;;;2.80;99.90;;;;;;5047828;28;20335;-74
2024/01/14 04:37:32;;;;;;;4.97;1.90;;;2.80;99.90;;;;;;5049691;28;20310;-74
2024/01/14 04:39:59;;;;;;;4.53;1.63;;;2.80;99.90;;;;;;5053782;28;20292;-74
2024/01/14 04:42:28;;;;;;;4.07;1.47;;;2.80;99.90;;;;;;5043739;28;20205;-74
2024/01/14 04:44:54;;;;;;;8.60;1.80;;;2.80;99.90;;;;;;5044780;28;20205;-74
2024/01/14 04:47:21;;;;;;;8.60;1.70;;;2.80;99.90;;;;;;5048801;28;20287;-74
2024/01/14 04:49:49;;;;;;;7.83;1.40;;;2.90;99.90;;;;;;5045091;28;20665;-74
2024/01/14 04:52:16;;;;;;;5.23;1.80;;;2.90;99.90;;;;;;5047752;28;20228;-74
2024/01/14 04:54:43;;;;;;;4.20;1.27;;;2.90;99.90;;;;;;5046974;28;20195;-74
2024/01/14 04:57:09;;;;;;;3.27;1.33;;;2.90;99.90;;;;;;5046557;28;20274;-74
2024/01/14 04:59:38;;;;;;;5.77;1.57;;;2.90;99.90;;;;;;5053040;28;20196;-75
2024/01/14 05:02:05;;;;;;;6.77;1.53;;;2.90;99.90;;;;;;5046288;28;20306;-75
2024/01/14 05:04:32;;;;;;;8.40;1.80;;;2.90;99.90;;;;;;5044811;28;20772;-75
2024/01/14 05:06:59;;;;;;;4.63;1.50;;;2.90;99.90;;;;;;5046440;28;20292;-75
2024/01/14 05:09:26;;;;;;;6.90;1.53;;;2.90;99.90;;;;;;5048327;28;20213;-74
2024/01/14 05:11:53;;;;;;;4.37;1.40;;;2.90;99.90;;;;;;5048436;28;20304;-74
2024/01/14 05:14:20;;;;;;;5.43;1.60;;;3.00;99.90;;;;;;5047993;28;20311;-75
2024/01/14 05:16:48;;;;;;;5.57;1.43;;;3.00;99.90;;;;;;5048195;28;20331;-76
2024/01/14 05:19:15;;;;;;;3.90;1.37;;;3.00;99.90;;;;;;5047275;28;20245;-74
2024/01/14 05:21:42;;;;;;;4.57;1.77;;;3.00;99.90;;;;;;5047800;28;20295;-74
2024/01/14 05:24:09;;;;;;;7.80;1.90;;;3.00;99.90;;;;;;5047939;28;20236;-74
2024/01/14 05:26:40;;;;;;;6.93;1.80;;;3.00;99.90;;;;;;5048067;28;20676;-73
2024/01/14 05:29:06;;;;;;;5.73;1.53;;;3.00;99.90;;;;;;5048290;28;20643;-73
2024/01/14 05:31:33;;;;;;;4.77;1.53;;;3.00;99.90;;;;;;5047943;28;20196;-72
2024/01/14 05:34:01;;;;;;;3.27;1.30;;;2.90;99.90;;;;;;5047837;28;20283;-72
2024/01/14 05:36:28;;;;;;;5.90;1.50;;;3.00;99.90;;;;;;5047423;28;20212;-73
2024/01/14 05:38:55;;;;;;;3.27;1.50;;;3.00;99.90;;;;;;5047589;28;21016;-72
2024/01/14 05:41:22;;;;;;;6.17;1.43;;;3.00;99.90;;;;;;5047225;28;20228;-73
2024/01/14 05:43:50;;;;;;;6.83;1.47;;;3.00;99.90;;;;;;5047342;28;20701;-73
2024/01/14 05:46:17;;;;;;;6.97;1.90;;;3.00;99.90;;;;;;5047659;28;20204;-72
2024/01/14 05:48:44;;;;;;;7.03;1.47;;;3.00;99.90;;;;;;5047442;28;20251;-73
2024/01/14 05:51:15;;;;;;;4.23;1.30;;;3.00;99.90;;;;;;5047243;28;20307;-74
2024/01/14 05:53:41;;;;;;;4.07;1.33;;;3.00;99.90;;;;;;5047762;28;20200;-74
2024/01/14 05:56:08;;;;;;;4.13;1.10;;;3.00;99.90;;;;;;5047564;28;20294;-74
2024/01/14 05:58:35;;;;;;;4.17;1.30;;;3.00;99.90;;;;;;5047549;28;20693;-74
2024/01/14 06:01:04;;;;;;;3.30;1.47;;;3.00;99.90;;;;;;5047306;28;20314;-75
2024/01/14 06:03:31;;;;;;;8.03;1.37;;;3.00;99.90;;;;;;5046803;28;20793;-76
2024/01/14 06:05:58;;;;;;;2.37;1.60;;;3.00;99.90;;;;;;5047393;28;20291;-76
2024/01/14 06:08:26;;;;;;;2.73;1.50;;;3.00;99.90;;;;;;5046690;28;20207;-75
2024/01/14 06:10:53;;;;;;;2.17;1.07;;;3.00;99.90;;;;;;5047049;28;20287;-75
2024/01/14 06:13:19;;;;;;;6.10;1.20;;;3.00;99.90;;;;;;5047595;28;20546;-75
2024/01/14 06:15:46;;;;;;;1.50;1.10;;;3.00;99.90;;;;;;5047422;28;20295;-74
2024/01/14 06:18:13;;;;;;;3.87;1.00;;;3.00;99.90;;;;;;5047115;28;20331;-74
2024/01/14 06:20:40;;;;;;;4.93;1.00;;;3.00;99.90;;;;;;5047222;28;20885;-74
2024/01/14 06:23:07;;;;;;;5.93;1.70;;;3.00;99.90;;;;;;5046750;28;20209;-74
2024/01/14 06:25:35;;;;;;;2.53;1.30;;;3.00;99.90;;;;;;5047164;28;20204;-74
2024/01/14 06:28:03;;;;;;;3.33;1.37;;;3.00;99.90;;;;;;5047023;28;20204;-74
2024/01/14 06:30:30;;;;;;;4.17;1.50;;;3.00;99.90;;;;;;5046928;28;20211;-74
2024/01/14 06:32:57;;;;;;;4.30;1.53;;;2.90;99.90;;;;;;5046714;28;20205;-74
2024/01/14 06:35:23;;;;;;;3.53;1.20;;;2.90;99.90;;;;;;5046380;28;20298;-74
2024/01/14 06:37:51;;;;;;;4.13;1.10;;;2.90;99.90;;;;;;5046085;28;20235;-74
2024/01/14 06:40:18;;;;;;;4.23;1.40;;;2.90;99.90;;;;;;5046705;28;20299;-74
2024/01/14 06:42:46;;;;;;;1.57;0.93;;;3.00;99.90;;;;;;5046489;28;20648;-75
2024/01/14 06:45:13;;;;;;;4.13;1.37;;;3.00;99.90;;;;;;5046874;28;20218;-75
2024/01/14 06:47:41;;;;;;;4.70;1.47;;;2.90;99.90;;;;;;5047077;28;20208;-75
2024/01/14 06:50:10;;;;;;;5.90;1.63;;;2.90;99.90;;;;;;5046675;28;20281;-75
2024/01/14 06:52:37;;;;;;;6.63;1.87;;;2.90;99.90;;;;;;5046308;28;20200;-74
2024/01/14 06:55:05;;;;;;;5.43;1.50;;;2.90;99.90;;;;;;5046602;28;20502;-75
2024/01/14 06:57:32;;;;;;;7.60;1.50;;;2.90;99.90;;;;;;5046280;28;20677;-75
2024/01/14 07:00:03;;;;;;;7.40;1.83;;;2.90;99.90;;;;;;5046492;28;20211;-75
2024/01/14 07:02:31;;;;;;;4.77;1.57;;;2.90;99.90;;;;;;5046772;28;20206;-75
2024/01/14 07:04:58;;;;;;;6.90;1.97;;;2.90;99.90;;;;;;5046174;28;20344;-75
2024/01/14 07:07:25;;;;;;;3.83;1.40;;;3.00;99.90;;;;;;5045095;28;20308;-74
2024/01/14 07:09:51;;;;;;;3.73;1.33;;;3.00;99.90;;;;;;5046379;28;20316;-75
2024/01/14 07:12:18;;;;;;;2.43;1.17;;;3.00;99.90;;;;;;5046607;28;20205;-74
2024/01/14 07:14:45;;;;;;;3.17;1.43;;;3.00;99.90;;;;;;5046469;28;20252;-75
2024/01/14 07:17:13;;;;;;;4.27;1.20;;;2.90;99.90;;;;;;5046418;28;20626;-75
2024/01/14 07:19:40;;;;;;;2.73;1.20;;;2.90;99.90;;;;;;5046524;28;20267;-74
2024/01/14 07:22:07;;;;;;;2.07;1.20;;;2.90;99.90;;;;;;5046092;28;20299;-74
2024/01/14 07:24:34;;;;;;;5.30;1.40;;;2.90;99.90;;;;;;5046689;28;20211;-74
2024/01/14 07:27:02;;;;;;;5.40;1.60;;;2.90;99.90;;;;;;5046440;28;20569;-74
2024/01/14 07:29:29;;;;;;;3.80;1.13;;;2.90;99.90;;;;;;5046508;28;20218;-74
2024/01/14 07:31:55;;;;;;;7.37;1.50;;;2.90;99.90;;;;;;5046428;28;20247;-75
2024/01/14 07:34:24;;;;;;;2.30;1.20;;;2.90;99.90;;;;;;5046361;28;20701;-74
2024/01/14 07:36:51;;;;;;;2.03;1.50;;;2.90;99.90;;;;;;5045947;28;20673;-74
2024/01/14 07:39:17;;;;;;;2.70;1.40;;;2.90;99.90;;;;;;5046183;28;20242;-74
2024/01/14 07:41:44;;;;;;;10.40;1.60;;;2.90;99.90;;;;;;5047917;28;20701;-75
2024/01/14 07:44:11;;;;;;;3.27;1.40;;;2.90;99.90;;;;;;5050285;28;20228;-75
2024/01/14 07:46:38;;;;;;;4.23;1.60;;;2.90;99.90;;;;;;5050109;28;20196;-75
2024/01/14 07:49:05;;;;;;;3.93;1.50;;;2.90;99.90;;;;;;5050138;28;20302;-75
2024/01/14 07:51:33;;;;;;;5.33;2.00;;;2.90;99.90;;;;;;5049662;28;20208;-75
2024/01/14 07:54:00;;;;;;;3.27;1.57;;;2.90;99.90;;;;;;5050058;28;20295;-75
2024/01/14 07:56:27;;;;;;;3.33;1.20;;;2.90;99.90;;;;;;5050190;28;20307;-75
2024/01/14 07:58:54;;;;;;;4.47;1.07;;;3.00;99.90;;;;;;5049930;28;20258;-75
2024/01/14 08:01:20;;;;;;;2.93;1.57;;;3.00;99.90;;;;;;5049855;28;20234;-75
2024/01/14 08:03:48;;;;;;;3.43;1.33;;;2.90;99.90;;;;;;5049517;28;20263;-74
2024/01/14 08:06:20;;;;;;;2.70;1.10;;;2.90;99.90;;;;;;5049681;28;20630;-74
2024/01/14 08:08:48;;;;;;;3.40;1.10;;;3.00;99.90;;;;;;5049781;28;20218;-75
2024/01/14 08:11:16;;;;;;;5.13;1.20;;;3.00;99.90;;;;;;5049276;28;20666;-75
2024/01/14 08:13:43;;;;;;;3.23;1.10;;;3.00;99.90;;;;;;5049636;28;20204;-75
2024/01/14 08:16:10;;;;;;;3.97;1.00;;;3.00;99.90;;;;;;5049329;28;20302;-75
2024/01/14 08:18:37;;;;;;;5.93;2.60;;;3.00;99.90;;;;;;5049336;28;20238;-75
2024/01/14 08:21:09;;;;;;;4.43;3.10;;;3.00;99.90;;;;;;5049540;28;20303;-75
2024/01/14 08:23:36;;;;;;;4.67;1.37;;;3.00;99.90;;;;;;5048941;28;20253;-74
2024/01/14 08:26:07;;;;;;;3.43;1.80;;;3.00;99.90;;;;;;5048766;28;20206;-74
2024/01/14 08:28:36;;;;;;;3.70;1.47;;;3.00;99.90;;;;;;5048913;28;20204;-74
2024/01/14 08:31:03;;;;;;;2.87;1.60;;;3.00;99.90;;;;;;5048916;28;20292;-74
2024/01/14 08:33:30;;;;;;;3.97;1.13;;;3.10;99.90;;;;;;5048698;28;20728;-74
2024/01/14 08:35:57;;;;;;;3.47;1.17;;;3.10;99.90;;;;;;5048932;28;20307;-74
2024/01/14 08:38:24;;;;;;;2.27;0.83;;;3.10;99.90;;;;;;5048794;28;20728;-74
2024/01/14 08:40:52;;;;;;;5.20;1.13;;;3.10;99.90;;;;;;5048820;28;20210;-76
2024/01/14 08:43:20;;;;;;;3.03;0.97;;;3.10;99.90;;;;;;5048536;28;20236;-75
2024/01/14 08:45:47;;;;;;;2.97;1.00;;;3.10;99.90;;;;;;5047859;28;20339;-74
2024/01/14 08:48:15;;;;;;;2.13;1.20;;;3.10;99.90;;;;;;5048867;28;20232;-73
2024/01/14 08:50:42;;;;;;;2.27;1.07;;;3.20;99.90;;;;;;5048723;28;20216;-73
2024/01/14 08:53:09;;;;;;;3.00;1.43;;;3.10;99.90;;;;;;5048121;28;20725;-73
2024/01/14 08:55:36;;;;;;;2.63;0.80;;;3.20;99.90;;;;;;5048817;28;20208;-73
2024/01/14 08:58:03;;;;;;;5.43;1.50;;;3.20;99.90;;;;;;5048643;28;20236;-75
2024/01/14 09:00:31;;;;;;;2.03;1.67;;;3.20;99.90;;;;;;5048805;28;20662;-75
2024/01/14 09:02:58;;;;;;;4.20;1.27;;;3.20;99.90;;;;;;5048284;28;20331;-75
2024/01/14 09:05:24;;;;;;;3.47;1.03;;;3.20;99.90;;;;;;5008846;28;20328;-75
2024/01/14 09:07:51;;;;;;;1.63;0.70;;;3.20;99.90;;;;;;4992475;28;20285;-75
2024/01/14 09:10:19;;;;;;;4.67;1.40;;;3.20;99.90;;;;;;4997712;28;20210;-75
2024/01/14 09:12:45;;;;;;;4.50;3.70;;;3.20;99.90;;;;;;5008814;28;20219;-75
2024/01/14 09:15:12;;;;;;;10.27;4.93;;;3.20;99.90;;;;;;5008576;28;20236;-75
2024/01/14 09:17:41;;;;;;;7.07;3.53;;;3.20;99.90;;;;;;5008313;28;20267;-75
2024/01/14 09:20:09;;;;;;;8.13;3.93;;;3.20;99.90;;;;;;4996655;28;20261;-76
2024/01/14 09:22:36;;;;;;;15.87;7.13;;;3.30;99.90;;;;;;4988571;28;20666;-75
2024/01/14 09:25:03;;;;;;;21.17;9.53;;;3.30;99.90;;;;;;4998334;28;20202;-74
2024/01/14 09:27:30;;;;;;;17.07;8.30;;;3.30;99.90;;;;;;5008547;28;20217;-74
2024/01/14 09:29:58;;;;;;;7.83;3.00;;;3.30;99.90;;;;;;5007892;28;20241;-75
2024/01/14 09:32:25;;;;;;;14.13;5.57;;;3.30;99.90;;;;;;5008380;28;20209;-74
2024/01/14 09:34:53;;;;;;;7.03;3.83;;;3.30;99.90;;;;;;5008181;28;20216;-75
2024/01/14 09:37:20;;;;;;;17.37;8.17;;;3.40;99.90;;;;;;5008020;28;20292;-75
2024/01/14 09:39:47;;;;;;;13.10;4.23;;;3.40;99.90;;;;;;5008065;28;20307;-74
2024/01/14 09:42:20;;;;;;;8.83;4.47;;;3.50;99.90;;;;;;4994304;28;20622;-74
2024/01/14 09:44:48;;;;;;;10.40;3.90;;;3.50;99.90;;;;;;5001513;28;20205;-75
2024/01/14 09:47:17;;;;;;;20.03;7.47;;;3.50;99.90;;;;;;5008169;28;20208;-74
2024/01/14 09:49:45;;;;;;;2.73;1.80;;;3.50;99.90;;;;;;5008168;28;20206;-74
2024/01/14 09:52:14;;;;;;;4.93;1.53;;;3.60;99.90;;;;;;5007746;28;20296;-74
2024/01/14 09:54:41;;;;;;;5.10;1.57;;;3.60;99.90;;;;;;4996290;28;20230;-74
2024/01/14 09:57:13;;;;;;;5.97;2.60;;;3.70;99.90;;;;;;4996857;28;20213;-74
2024/01/14 09:59:42;;;;;;;2.57;1.33;;;3.70;99.90;;;;;;5005136;28;20224;-72
2024/01/14 10:02:11;;;;;;;3.00;1.67;;;3.70;99.90;;;;;;5005762;28;20304;-72
2024/01/14 10:04:41;;;;;;;3.97;2.00;;;3.60;99.90;;;;;;5032069;28;20310;-72
2024/01/14 10:07:08;;;;;;;3.87;2.10;;;3.70;99.90;;;;;;5045284;28;20263;-72
2024/01/14 10:09:36;;;;;;;4.50;1.50;;;3.70;99.90;;;;;;5045519;28;20291;-72
2024/01/14 10:12:03;;;;;;;5.20;1.50;;;3.70;99.90;;;;;;5045327;28;20714;-72
2024/01/14 10:14:30;;;;;;;4.43;2.07;;;3.60;99.90;;;;;;5045815;28;20251;-72
2024/01/14 10:16:57;;;;;;;2.77;1.20;;;3.60;99.90;;;;;;5045342;28;20193;-72
2024/01/14 10:19:25;;;;;;;5.93;1.63;;;3.60;99.90;;;;;;5045287;28;20228;-71
2024/01/14 10:21:54;;;;;;;1.97;1.77;;;3.60;99.90;;;;;;5044554;28;20211;-71
2024/01/14 10:24:22;;;;;;;5.50;1.83;;;3.60;99.90;;;;;;5045099;28;20317;-72
2024/01/14 10:26:54;;;;;;;1.90;1.10;;;3.70;99.90;;;;;;5045187;28;20302;-72
2024/01/14 10:29:21;;;;;;;5.20;1.37;;;3.70;99.90;;;;;;5045141;28;20293;-71
2024/01/14 10:31:49;;;;;;;5.13;1.63;;;3.70;99.90;;;;;;5045143;28;20212;-71
2024/01/14 10:34:18;;;;;;;2.73;0.90;;;3.70;99.90;;;;;;5045335;28;20204;-72
2024/01/14 10:36:45;;;;;;;2.97;1.50;;;3.70;99.90;;;;;;5045068;28;20200;-72
2024/01/14 10:39:12;;;;;;;4.53;1.40;;;3.80;99.90;;;;;;5045031;28;20281;-72
2024/01/14 10:41:40;;;;;;;4.00;2.03;;;3.80;99.90;;;;;;5044453;28;20662;-72
2024/01/14 10:44:09;;;;;;;3.77;1.37;;;3.80;99.90;;;;;;5044657;28;20645;-71
2024/01/14 10:46:39;;;;;;;3.33;1.43;;;3.90;99.90;;;;;;5044864;28;20208;-72
2024/01/14 10:49:07;;;;;;;5.73;1.43;;;3.90;99.90;;;;;;5045163;28;20307;-72
2024/01/14 10:51:40;;;;;;;3.43;1.47;;;3.90;99.90;;;;;;5045096;28;20199;-72
2024/01/14 10:54:17;;;;;;;4.03;1.33;;;3.90;99.90;;;;;;5044826;28;20322;-72
2024/01/14 10:56:48;;;;;;;2.40;1.13;;;3.90;99.90;;;;;;5045543;28;20202;-72
2024/01/14 10:59:19;;;;;;;3.63;1.40;;;3.90;99.90;;;;;;5045262;28;20682;-72
2024/01/14 11:01:49;;;;;;;3.20;1.40;;;4.00;99.90;;;;;;5044717;28;20231;-72
2024/01/14 11:04:18;;;;;;;2.97;1.30;;;4.00;99.90;;;;;;5044858;28;20240;-72
2024/01/14 11:06:47;;;;;;;6.63;1.50;;;4.00;99.90;;;;;;5044453;28;20323;-73
2024/01/14 11:09:14;;;;;;;4.00;1.30;;;4.00;99.90;;;;;;5044842;28;20208;-72
2024/01/14 11:11:49;;;;;;;4.53;1.23;;;4.00;99.90;;;;;;5044871;28;20215;-73
2024/01/14 11:14:22;;;;;;;4.83;1.43;;;4.00;99.90;;;;;;5044831;28;20204;-72
2024/01/14 11:16:56;;;;;;;3.90;1.30;;;4.00;99.90;;;;;;5046170;28;20206;-72
2024/01/14 11:19:29;;;;;;;4.10;1.30;;;4.00;99.90;;;;;;5048483;28;20339;-72
2024/01/14 11:22:12;;;;;;;4.90;1.20;;;4.10;99.90;;;;;;5048824;28;20229;-72
2024/01/14 11:24:39;;;;;;;3.03;1.20;;;4.00;99.90;;;;;;5049102;28;20681;-73
2024/01/14 11:27:08;;;;;;;2.73;1.50;;;4.00;99.90;;;;;;5048816;28;20311;-73
2024/01/14 11:29:37;;;;;;;4.20;1.40;;;4.00;99.90;;;;;;5048113;28;20926;-73
2024/01/14 11:32:09;;;;;;;3.23;1.40;;;4.00;99.90;;;;;;5048795;28;20210;-72
2024/01/14 11:34:57;;;;;;;2.43;1.13;;;4.00;99.90;;;;;;5048635;28;20215;-72
2024/01/14 11:37:46;;;;;;;2.40;1.00;;;4.00;99.90;;;;;;5048948;28;20658;-72
2024/01/14 11:40:24;;;;;;;2.90;1.53;;;3.90;99.90;;;;;;5048948;28;20224;-72
2024/01/14 11:42:56;;;;;;;2.93;1.17;;;3.90;99.90;;;;;;5048494;28;20282;-73
2024/01/14 11:45:35;;;;;;;1.70;0.93;;;3.90;99.90;;;;;;5048577;28;20634;-73
2024/01/14 11:48:04;;;;;;;2.23;1.23;;;4.00;99.90;;;;;;5048430;28;20621;-73
2024/01/14 11:50:32;;;;;;;1.63;1.20;;;4.00;99.90;;;;;;5048400;28;20205;-72
2024/01/14 11:53:00;;;;;;;2.57;1.10;;;4.00;99.90;;;;;;5048061;28;20208;-72
2024/01/14 11:55:30;;;;;;;1.77;1.20;;;4.00;99.90;;;;;;5048137;28;20204;-72
2024/01/14 11:58:08;;;;;;;5.73;1.30;;;3.90;99.90;;;;;;5047900;28;20227;-72
2024/01/14 12:00:37;;;;;;;2.23;1.30;;;4.00;99.90;;;;;;5048205;28;20266;-73
2024/01/14 12:03:05;;;;;;;5.03;1.63;;;3.90;99.90;;;;;;5047546;28;20307;-72
2024/01/14 12:05:33;;;;;;;2.77;1.60;;;4.00;99.90;;;;;;5046914;28;20287;-72
2024/01/14 12:08:01;;;;;;;1.90;0.90;;;4.00;99.90;;;;;;5046335;28;20959;-72
2024/01/14 12:10:31;;;;;;;3.67;1.40;;;4.00;99.90;;;;;;5046747;28;20696;-72
2024/01/14 12:13:00;;;;;;;5.03;1.60;;;4.00;99.90;;;;;;5046753;28;20326;-73
2024/01/14 12:15:28;;;;;;;4.10;1.27;;;4.00;99.90;;;;;;5046209;28;20208;-72
2024/01/14 12:17:58;;;;;;;3.10;1.57;;;4.00;99.90;;;;;;5045837;28;20211;-73
2024/01/14 12:20:26;;;;;;;2.57;1.33;;;4.00;99.90;;;;;;5046945;28;20785;-73
2024/01/14 12:22:58;;;;;;;1.87;1.23;;;4.00;99.90;;;;;;5046067;28;20253;-72
2024/01/14 12:25:25;;;;;;;4.43;1.50;;;4.00;99.90;;;;;;5046620;28;20287;-73
2024/01/14 12:27:51;;;;;;;4.70;1.40;;;3.90;99.90;;;;;;5045833;28;20223;-73
2024/01/14 12:30:31;;;;;;;3.37;1.43;;;3.90;99.90;;;;;;5047172;28;20208;-73
2024/01/14 12:33:04;;;;;;;2.97;1.20;;;3.90;99.90;;;;;;5027822;28;20196;-73
2024/01/14 12:35:35;;;;;;;5.27;1.17;;;3.80;99.90;;;;;;5028104;28;20250;-73
2024/01/14 12:38:03;;;;;;;3.47;1.40;;;3.80;99.90;;;;;;5027941;28;20292;-73
2024/01/14 12:40:31;;;;;;;5.50;1.70;;;3.80;99.90;;;;;;5042783;28;20250;-73
2024/01/14 12:42:58;;;;;;;4.33;1.40;;;3.80;99.90;;;;;;5047055;28;20204;-73
2024/01/14 12:45:25;;;;;;;2.17;1.30;;;3.80;99.90;;;;;;5047703;28;20234;-73
2024/01/14 12:48:04;;;;;;;5.27;1.77;;;3.80;99.90;;;;;;5047304;28;20284;-73
2024/01/14 12:50:35;;;;;;;4.20;1.50;;;3.70;99.90;;;;;;5046234;28;20267;-73
2024/01/14 12:53:03;;;;;;;3.27;1.40;;;3.70;99.90;;;;;;5041675;28;20311;-73
2024/01/14 12:55:31;;;;;;;2.73;1.50;;;3.70;99.90;;;;;;5047472;28;20871;-73
2024/01/14 12:58:00;;;;;;;5.00;1.50;;;3.70;99.90;;;;;;5047235;28;20205;-73
2024/01/14 13:00:27;;;;;;;3.20;1.43;;;3.70;99.90;;;;;;5047281;28;20224;-74
2024/01/14 13:02:54;;;;;;;1.63;1.20;;;3.70;99.90;;;;;;5046794;28;20291;-73